sensor_id;sensor_type;location;lat;lon;timestamp;P1;durP1;ratioP1;P2;durP2;ratioP2
66830;SDS011;53739;44.224;22.528;2023-01-26T00:00:42;63.45;;;33.65;;
66830;SDS011;53739;44.224;22.528;2023-01-26T00:03:08;65.82;;;32.92;;
66830;SDS011;53739;44.224;22.528;2023-01-26T00:05:38;62.58;;;31.95;;
66830;SDS011;53739;44.224;22.528;2023-01-26T00:08:05;64.63;;;33.38;;
66830;SDS011;53739;44.224;22.528;2023-01-26T00:10:31;64.97;;;36.00;;
66830;SDS011;53739;44.224;22.528;2023-01-26T00:12:59;60.78;;;33.70;;
66830;SDS011;53739;44.224;22.528;2023-01-26T00:15:25;60.33;;;32.00;;
66830;SDS011;53739;44.224;22.528;2023-01-26T00:17:51;66.25;;;34.90;;
66830;SDS011;53739;44.224;22.528;2023-01-26T00:20:17;66.35;;;34.42;;
66830;SDS011;53739;44.224;22.528;2023-01-26T00:22:44;54.67;;;28.02;;
66830;SDS011;53739;44.224;22.528;2023-01-26T00:25:10;54.35;;;28.75;;
66830;SDS011;53739;44.224;22.528;2023-01-26T00:27:36;43.67;;;24.88;;
66830;SDS011;53739;44.224;22.528;2023-01-26T00:30:02;51.60;;;26.67;;
66830;SDS011;53739;44.224;22.528;2023-01-26T00:32:28;71.78;;;37.78;;
66830;SDS011;53739;44.224;22.528;2023-01-26T00:34:55;49.25;;;24.92;;
66830;SDS011;53739;44.224;22.528;2023-01-26T00:37:21;50.28;;;26.67;;
66830;SDS011;53739;44.224;22.528;2023-01-26T00:39:47;65.28;;;31.65;;
66830;SDS011;53739;44.224;22.528;2023-01-26T00:42:13;51.50;;;28.30;;
66830;SDS011;53739;44.224;22.528;2023-01-26T00:44:40;46.72;;;25.95;;
66830;SDS011;53739;44.224;22.528;2023-01-26T00:47:08;55.53;;;28.90;;
66830;SDS011;53739;44.224;22.528;2023-01-26T00:49:36;51.35;;;27.52;;
66830;SDS011;53739;44.224;22.528;2023-01-26T00:52:02;54.30;;;29.52;;
66830;SDS011;53739;44.224;22.528;2023-01-26T00:54:28;59.42;;;33.55;;
66830;SDS011;53739;44.224;22.528;2023-01-26T00:56:54;58.85;;;32.58;;
66830;SDS011;53739;44.224;22.528;2023-01-26T00:59:21;57.55;;;30.35;;
66830;SDS011;53739;44.224;22.528;2023-01-26T01:01:47;63.95;;;35.05;;
66830;SDS011;53739;44.224;22.528;2023-01-26T01:04:14;61.53;;;34.65;;
66830;SDS011;53739;44.224;22.528;2023-01-26T01:06:41;63.47;;;33.55;;
66830;SDS011;53739;44.224;22.528;2023-01-26T01:09:07;53.70;;;30.27;;
66830;SDS011;53739;44.224;22.528;2023-01-26T01:11:33;51.00;;;27.60;;
66830;SDS011;53739;44.224;22.528;2023-01-26T01:13:59;55.60;;;30.30;;
66830;SDS011;53739;44.224;22.528;2023-01-26T01:16:26;60.95;;;30.13;;
66830;SDS011;53739;44.224;22.528;2023-01-26T01:18:53;47.30;;;26.15;;
66830;SDS011;53739;44.224;22.528;2023-01-26T01:21:20;53.72;;;26.77;;
66830;SDS011;53739;44.224;22.528;2023-01-26T01:23:48;57.55;;;29.38;;
66830;SDS011;53739;44.224;22.528;2023-01-26T01:26:14;57.08;;;30.67;;
66830;SDS011;53739;44.224;22.528;2023-01-26T01:28:41;52.28;;;26.35;;
66830;SDS011;53739;44.224;22.528;2023-01-26T01:31:09;52.60;;;27.55;;
66830;SDS011;53739;44.224;22.528;2023-01-26T01:33:37;61.30;;;30.33;;
66830;SDS011;53739;44.224;22.528;2023-01-26T01:36:05;81.40;;;44.22;;
66830;SDS011;53739;44.224;22.528;2023-01-26T01:38:38;114.07;;;60.13;;
66830;SDS011;53739;44.224;22.528;2023-01-26T01:41:05;84.07;;;44.58;;
66830;SDS011;53739;44.224;22.528;2023-01-26T01:43:31;64.82;;;33.15;;
66830;SDS011;53739;44.224;22.528;2023-01-26T01:45:59;61.53;;;31.80;;
66830;SDS011;53739;44.224;22.528;2023-01-26T01:50:54;55.22;;;28.08;;
66830;SDS011;53739;44.224;22.528;2023-01-26T01:53:27;60.00;;;36.25;;
66830;SDS011;53739;44.224;22.528;2023-01-26T01:55:58;68.60;;;42.28;;
66830;SDS011;53739;44.224;22.528;2023-01-26T01:58:29;72.20;;;46.25;;
66830;SDS011;53739;44.224;22.528;2023-01-26T02:00:58;57.33;;;35.67;;
66830;SDS011;53739;44.224;22.528;2023-01-26T02:03:24;47.90;;;27.55;;
66830;SDS011;53739;44.224;22.528;2023-01-26T02:08:32;59.25;;;32.40;;
66830;SDS011;53739;44.224;22.528;2023-01-26T02:11:02;53.65;;;28.48;;
66830;SDS011;53739;44.224;22.528;2023-01-26T02:13:32;64.40;;;31.02;;
66830;SDS011;53739;44.224;22.528;2023-01-26T02:16:00;55.13;;;29.20;;
66830;SDS011;53739;44.224;22.528;2023-01-26T02:18:26;59.28;;;28.63;;
66830;SDS011;53739;44.224;22.528;2023-01-26T02:20:57;53.60;;;28.27;;
66830;SDS011;53739;44.224;22.528;2023-01-26T02:28:30;58.58;;;30.35;;
66830;SDS011;53739;44.224;22.528;2023-01-26T02:30:56;56.30;;;31.38;;
66830;SDS011;53739;44.224;22.528;2023-01-26T02:33:25;50.85;;;29.00;;
66830;SDS011;53739;44.224;22.528;2023-01-26T02:35:52;55.95;;;26.98;;
66830;SDS011;53739;44.224;22.528;2023-01-26T02:38:18;57.50;;;27.45;;
66830;SDS011;53739;44.224;22.528;2023-01-26T02:43:19;40.67;;;22.85;;
66830;SDS011;53739;44.224;22.528;2023-01-26T02:45:48;51.95;;;28.50;;
66830;SDS011;53739;44.224;22.528;2023-01-26T02:48:14;51.45;;;27.38;;
66830;SDS011;53739;44.224;22.528;2023-01-26T02:50:59;55.92;;;31.13;;
66830;SDS011;53739;44.224;22.528;2023-01-26T02:53:25;51.00;;;27.83;;
66830;SDS011;53739;44.224;22.528;2023-01-26T02:55:51;48.35;;;25.88;;
66830;SDS011;53739;44.224;22.528;2023-01-26T02:58:17;46.95;;;25.98;;
66830;SDS011;53739;44.224;22.528;2023-01-26T03:00:43;47.92;;;25.13;;
66830;SDS011;53739;44.224;22.528;2023-01-26T03:03:13;53.95;;;26.27;;
66830;SDS011;53739;44.224;22.528;2023-01-26T03:05:42;48.30;;;27.58;;
66830;SDS011;53739;44.224;22.528;2023-01-26T03:08:08;53.60;;;28.15;;
66830;SDS011;53739;44.224;22.528;2023-01-26T03:10:35;75.28;;;34.22;;
66830;SDS011;53739;44.224;22.528;2023-01-26T03:13:01;69.13;;;33.47;;
66830;SDS011;53739;44.224;22.528;2023-01-26T03:15:28;75.10;;;35.28;;
66830;SDS011;53739;44.224;22.528;2023-01-26T03:18:21;109.60;;;47.58;;
66830;SDS011;53739;44.224;22.528;2023-01-26T03:21:09;105.82;;;46.25;;
66830;SDS011;53739;44.224;22.528;2023-01-26T03:23:55;77.13;;;37.22;;
66830;SDS011;53739;44.224;22.528;2023-01-26T03:26:39;97.32;;;42.30;;
66830;SDS011;53739;44.224;22.528;2023-01-26T03:29:24;93.30;;;40.33;;
66830;SDS011;53739;44.224;22.528;2023-01-26T03:31:51;85.13;;;37.65;;
66830;SDS011;53739;44.224;22.528;2023-01-26T03:34:17;89.95;;;42.30;;
66830;SDS011;53739;44.224;22.528;2023-01-26T03:36:44;91.22;;;42.38;;
66830;SDS011;53739;44.224;22.528;2023-01-26T03:39:11;84.93;;;40.78;;
66830;SDS011;53739;44.224;22.528;2023-01-26T03:41:57;80.68;;;39.50;;
66830;SDS011;53739;44.224;22.528;2023-01-26T03:44:42;70.85;;;36.88;;
66830;SDS011;53739;44.224;22.528;2023-01-26T03:47:26;87.43;;;43.22;;
66830;SDS011;53739;44.224;22.528;2023-01-26T03:50:10;62.35;;;32.80;;
66830;SDS011;53739;44.224;22.528;2023-01-26T03:52:58;65.97;;;33.78;;
66830;SDS011;53739;44.224;22.528;2023-01-26T03:55:43;80.90;;;43.03;;
66830;SDS011;53739;44.224;22.528;2023-01-26T03:58:27;61.20;;;33.28;;
66830;SDS011;53739;44.224;22.528;2023-01-26T04:00:54;76.50;;;36.08;;
66830;SDS011;53739;44.224;22.528;2023-01-26T04:03:21;64.57;;;34.53;;
66830;SDS011;53739;44.224;22.528;2023-01-26T04:06:05;69.35;;;35.55;;
66830;SDS011;53739;44.224;22.528;2023-01-26T04:08:50;81.07;;;42.78;;
66830;SDS011;53739;44.224;22.528;2023-01-26T04:11:16;76.00;;;39.33;;
66830;SDS011;53739;44.224;22.528;2023-01-26T04:13:42;83.57;;;40.65;;
66830;SDS011;53739;44.224;22.528;2023-01-26T04:16:26;60.58;;;32.35;;
66830;SDS011;53739;44.224;22.528;2023-01-26T04:19:10;76.55;;;39.58;;
66830;SDS011;53739;44.224;22.528;2023-01-26T04:21:55;65.15;;;35.28;;
66830;SDS011;53739;44.224;22.528;2023-01-26T04:24:23;57.90;;;29.02;;
66830;SDS011;53739;44.224;22.528;2023-01-26T04:26:49;73.35;;;35.17;;
66830;SDS011;53739;44.224;22.528;2023-01-26T04:29:15;109.90;;;46.63;;
66830;SDS011;53739;44.224;22.528;2023-01-26T04:31:41;103.13;;;41.47;;
66830;SDS011;53739;44.224;22.528;2023-01-26T04:34:12;92.03;;;38.50;;
66830;SDS011;53739;44.224;22.528;2023-01-26T04:36:39;97.22;;;41.20;;
66830;SDS011;53739;44.224;22.528;2023-01-26T04:39:06;78.68;;;35.72;;
66830;SDS011;53739;44.224;22.528;2023-01-26T04:41:32;79.28;;;36.00;;
66830;SDS011;53739;44.224;22.528;2023-01-26T04:43:59;66.97;;;34.03;;
66830;SDS011;53739;44.224;22.528;2023-01-26T04:46:25;73.43;;;36.78;;
66830;SDS011;53739;44.224;22.528;2023-01-26T04:48:51;64.95;;;33.20;;
66830;SDS011;53739;44.224;22.528;2023-01-26T04:51:18;69.57;;;35.15;;
66830;SDS011;53739;44.224;22.528;2023-01-26T04:53:45;63.33;;;32.30;;
66830;SDS011;53739;44.224;22.528;2023-01-26T04:56:32;64.75;;;34.17;;
66830;SDS011;53739;44.224;22.528;2023-01-26T04:58:59;60.20;;;32.38;;
66830;SDS011;53739;44.224;22.528;2023-01-26T05:01:29;53.75;;;27.90;;
66830;SDS011;53739;44.224;22.528;2023-01-26T05:03:58;51.70;;;27.77;;
66830;SDS011;53739;44.224;22.528;2023-01-26T05:06:25;50.38;;;27.33;;
66830;SDS011;53739;44.224;22.528;2023-01-26T05:08:50;47.75;;;27.08;;
66830;SDS011;53739;44.224;22.528;2023-01-26T05:11:17;43.63;;;24.90;;
66830;SDS011;53739;44.224;22.528;2023-01-26T05:13:43;54.95;;;29.35;;
66830;SDS011;53739;44.224;22.528;2023-01-26T05:16:11;46.95;;;25.58;;
66830;SDS011;53739;44.224;22.528;2023-01-26T05:18:38;46.55;;;24.38;;
66830;SDS011;53739;44.224;22.528;2023-01-26T05:21:05;47.75;;;25.42;;
66830;SDS011;53739;44.224;22.528;2023-01-26T05:23:31;56.65;;;30.45;;
66830;SDS011;53739;44.224;22.528;2023-01-26T05:25:57;50.95;;;28.85;;
66830;SDS011;53739;44.224;22.528;2023-01-26T05:28:24;46.17;;;24.05;;
66830;SDS011;53739;44.224;22.528;2023-01-26T05:30:50;51.20;;;27.13;;
66830;SDS011;53739;44.224;22.528;2023-01-26T05:33:16;46.60;;;25.25;;
66830;SDS011;53739;44.224;22.528;2023-01-26T05:35:46;47.05;;;24.27;;
66830;SDS011;53739;44.224;22.528;2023-01-26T05:38:13;51.38;;;26.52;;
66830;SDS011;53739;44.224;22.528;2023-01-26T05:40:39;39.30;;;23.33;;
66830;SDS011;53739;44.224;22.528;2023-01-26T05:43:05;41.47;;;22.80;;
66830;SDS011;53739;44.224;22.528;2023-01-26T05:45:32;44.63;;;24.35;;
66830;SDS011;53739;44.224;22.528;2023-01-26T05:47:58;50.55;;;27.45;;
66830;SDS011;53739;44.224;22.528;2023-01-26T05:50:25;52.50;;;27.55;;
66830;SDS011;53739;44.224;22.528;2023-01-26T05:52:51;44.20;;;24.52;;
66830;SDS011;53739;44.224;22.528;2023-01-26T05:55:17;49.35;;;25.02;;
66830;SDS011;53739;44.224;22.528;2023-01-26T05:57:43;51.70;;;27.08;;
66830;SDS011;53739;44.224;22.528;2023-01-26T06:00:09;54.75;;;27.13;;
66830;SDS011;53739;44.224;22.528;2023-01-26T06:02:36;57.10;;;28.65;;
66830;SDS011;53739;44.224;22.528;2023-01-26T06:05:02;49.10;;;27.60;;
66830;SDS011;53739;44.224;22.528;2023-01-26T06:07:28;52.55;;;28.40;;
66830;SDS011;53739;44.224;22.528;2023-01-26T06:09:54;56.63;;;27.60;;
66830;SDS011;53739;44.224;22.528;2023-01-26T06:12:20;56.58;;;28.88;;
66830;SDS011;53739;44.224;22.528;2023-01-26T06:14:46;57.60;;;29.55;;
66830;SDS011;53739;44.224;22.528;2023-01-26T06:17:13;60.42;;;29.05;;
66830;SDS011;53739;44.224;22.528;2023-01-26T06:19:39;56.58;;;30.95;;
66830;SDS011;53739;44.224;22.528;2023-01-26T06:22:06;64.03;;;34.38;;
66830;SDS011;53739;44.224;22.528;2023-01-26T06:24:33;79.28;;;43.85;;
66830;SDS011;53739;44.224;22.528;2023-01-26T06:26:59;68.50;;;36.40;;
66830;SDS011;53739;44.224;22.528;2023-01-26T06:29:25;87.55;;;46.28;;
66830;SDS011;53739;44.224;22.528;2023-01-26T06:31:51;66.18;;;37.25;;
66830;SDS011;53739;44.224;22.528;2023-01-26T06:34:17;83.63;;;45.67;;
66830;SDS011;53739;44.224;22.528;2023-01-26T06:36:44;119.25;;;69.57;;
66830;SDS011;53739;44.224;22.528;2023-01-26T06:39:10;75.35;;;44.35;;
66830;SDS011;53739;44.224;22.528;2023-01-26T06:41:37;69.68;;;42.67;;
66830;SDS011;53739;44.224;22.528;2023-01-26T06:44:04;63.55;;;39.42;;
66830;SDS011;53739;44.224;22.528;2023-01-26T06:46:30;62.80;;;35.85;;
66830;SDS011;53739;44.224;22.528;2023-01-26T06:48:55;66.07;;;35.13;;
66830;SDS011;53739;44.224;22.528;2023-01-26T06:54:07;62.92;;;33.65;;
66830;SDS011;53739;44.224;22.528;2023-01-26T06:56:35;73.22;;;38.47;;
66830;SDS011;53739;44.224;22.528;2023-01-26T06:59:00;79.72;;;39.42;;
66830;SDS011;53739;44.224;22.528;2023-01-26T07:01:26;71.07;;;39.90;;
66830;SDS011;53739;44.224;22.528;2023-01-26T07:03:56;76.75;;;39.97;;
66830;SDS011;53739;44.224;22.528;2023-01-26T07:06:21;75.80;;;40.00;;
66830;SDS011;53739;44.224;22.528;2023-01-26T07:08:47;63.95;;;36.22;;
66830;SDS011;53739;44.224;22.528;2023-01-26T07:11:13;57.30;;;32.10;;
66830;SDS011;53739;44.224;22.528;2023-01-26T07:13:40;52.95;;;28.08;;
66830;SDS011;53739;44.224;22.528;2023-01-26T07:16:06;53.50;;;29.05;;
66830;SDS011;53739;44.224;22.528;2023-01-26T07:18:35;49.92;;;28.75;;
66830;SDS011;53739;44.224;22.528;2023-01-26T07:21:04;58.03;;;29.90;;
66830;SDS011;53739;44.224;22.528;2023-01-26T07:23:32;61.70;;;32.03;;
66830;SDS011;53739;44.224;22.528;2023-01-26T07:25:58;56.33;;;30.50;;
66830;SDS011;53739;44.224;22.528;2023-01-26T07:28:24;61.03;;;32.55;;
66830;SDS011;53739;44.224;22.528;2023-01-26T07:30:50;60.53;;;33.10;;
66830;SDS011;53739;44.224;22.528;2023-01-26T07:33:16;64.32;;;33.78;;
66830;SDS011;53739;44.224;22.528;2023-01-26T07:35:42;67.05;;;34.05;;
66830;SDS011;53739;44.224;22.528;2023-01-26T07:38:08;65.80;;;35.92;;
66830;SDS011;53739;44.224;22.528;2023-01-26T07:40:34;73.65;;;37.03;;
66830;SDS011;53739;44.224;22.528;2023-01-26T07:43:00;80.63;;;40.83;;
66830;SDS011;53739;44.224;22.528;2023-01-26T07:45:26;73.10;;;39.72;;
66830;SDS011;53739;44.224;22.528;2023-01-26T07:47:55;77.15;;;39.10;;
66830;SDS011;53739;44.224;22.528;2023-01-26T07:50:22;72.15;;;36.80;;
66830;SDS011;53739;44.224;22.528;2023-01-26T07:52:49;87.93;;;44.38;;
66830;SDS011;53739;44.224;22.528;2023-01-26T07:55:18;76.80;;;40.17;;
66830;SDS011;53739;44.224;22.528;2023-01-26T07:57:48;79.38;;;42.35;;
66830;SDS011;53739;44.224;22.528;2023-01-26T08:00:15;81.80;;;44.38;;
66830;SDS011;53739;44.224;22.528;2023-01-26T08:02:41;107.55;;;58.03;;
66830;SDS011;53739;44.224;22.528;2023-01-26T08:05:07;95.68;;;52.38;;
66830;SDS011;53739;44.224;22.528;2023-01-26T08:07:34;77.88;;;40.45;;
66830;SDS011;53739;44.224;22.528;2023-01-26T08:09:59;69.25;;;38.08;;
66830;SDS011;53739;44.224;22.528;2023-01-26T08:12:25;79.72;;;44.63;;
66830;SDS011;53739;44.224;22.528;2023-01-26T08:14:51;78.70;;;41.58;;
66830;SDS011;53739;44.224;22.528;2023-01-26T08:17:17;90.63;;;47.85;;
66830;SDS011;53739;44.224;22.528;2023-01-26T08:19:43;85.75;;;45.65;;
66830;SDS011;53739;44.224;22.528;2023-01-26T08:22:10;99.97;;;50.47;;
66830;SDS011;53739;44.224;22.528;2023-01-26T08:24:35;77.07;;;40.33;;
66830;SDS011;53739;44.224;22.528;2023-01-26T08:27:01;85.45;;;44.28;;
66830;SDS011;53739;44.224;22.528;2023-01-26T08:29:27;86.57;;;44.88;;
66830;SDS011;53739;44.224;22.528;2023-01-26T08:31:53;75.22;;;40.42;;
66830;SDS011;53739;44.224;22.528;2023-01-26T08:34:19;75.15;;;42.03;;
66830;SDS011;53739;44.224;22.528;2023-01-26T08:36:46;78.70;;;42.17;;
66830;SDS011;53739;44.224;22.528;2023-01-26T08:39:12;74.15;;;41.47;;
66830;SDS011;53739;44.224;22.528;2023-01-26T08:41:38;82.05;;;46.33;;
66830;SDS011;53739;44.224;22.528;2023-01-26T08:44:05;81.10;;;44.72;;
66830;SDS011;53739;44.224;22.528;2023-01-26T08:46:31;71.72;;;42.13;;
66830;SDS011;53739;44.224;22.528;2023-01-26T08:48:57;67.40;;;36.80;;
66830;SDS011;53739;44.224;22.528;2023-01-26T08:51:23;64.35;;;36.67;;
66830;SDS011;53739;44.224;22.528;2023-01-26T08:53:48;75.95;;;44.72;;
66830;SDS011;53739;44.224;22.528;2023-01-26T08:56:14;79.22;;;41.65;;
66830;SDS011;53739;44.224;22.528;2023-01-26T08:58:40;92.32;;;46.40;;
66830;SDS011;53739;44.224;22.528;2023-01-26T09:01:10;77.10;;;41.17;;
66830;SDS011;53739;44.224;22.528;2023-01-26T09:03:37;79.85;;;43.35;;
66830;SDS011;53739;44.224;22.528;2023-01-26T09:06:04;114.53;;;56.55;;
66830;SDS011;53739;44.224;22.528;2023-01-26T09:08:31;104.30;;;51.88;;
66830;SDS011;53739;44.224;22.528;2023-01-26T09:10:57;114.32;;;58.78;;
66830;SDS011;53739;44.224;22.528;2023-01-26T09:13:23;87.65;;;47.75;;
66830;SDS011;53739;44.224;22.528;2023-01-26T09:15:49;63.10;;;32.40;;
66830;SDS011;53739;44.224;22.528;2023-01-26T09:18:14;67.18;;;36.83;;
66830;SDS011;53739;44.224;22.528;2023-01-26T09:20:40;54.53;;;30.10;;
66830;SDS011;53739;44.224;22.528;2023-01-26T09:23:06;66.60;;;39.85;;
66830;SDS011;53739;44.224;22.528;2023-01-26T09:25:34;62.83;;;35.03;;
66830;SDS011;53739;44.224;22.528;2023-01-26T09:28:01;60.33;;;33.83;;
66830;SDS011;53739;44.224;22.528;2023-01-26T09:30:27;69.60;;;39.83;;
66830;SDS011;53739;44.224;22.528;2023-01-26T09:33:00;62.67;;;35.90;;
66830;SDS011;53739;44.224;22.528;2023-01-26T09:35:31;65.15;;;38.35;;
66830;SDS011;53739;44.224;22.528;2023-01-26T09:37:57;56.30;;;30.45;;
66830;SDS011;53739;44.224;22.528;2023-01-26T09:43:02;70.25;;;40.78;;
66830;SDS011;53739;44.224;22.528;2023-01-26T09:51:43;59.20;;;31.95;;
66830;SDS011;53739;44.224;22.528;2023-01-26T09:54:50;61.60;;;34.45;;
66830;SDS011;53739;44.224;22.528;2023-01-26T10:03:31;72.68;;;39.53;;
66830;SDS011;53739;44.224;22.528;2023-01-26T10:06:25;55.97;;;31.08;;
66830;SDS011;53739;44.224;22.528;2023-01-26T10:08:56;58.10;;;31.10;;
66830;SDS011;53739;44.224;22.528;2023-01-26T10:11:45;64.28;;;36.00;;
66830;SDS011;53739;44.224;22.528;2023-01-26T10:14:35;57.80;;;31.00;;
66830;SDS011;53739;44.224;22.528;2023-01-26T10:17:06;116.78;;;63.20;;
66830;SDS011;53739;44.224;22.528;2023-01-26T10:19:49;83.07;;;46.83;;
66830;SDS011;53739;44.224;22.528;2023-01-26T10:25:15;72.47;;;43.85;;
66830;SDS011;53739;44.224;22.528;2023-01-26T10:27:43;92.53;;;51.08;;
66830;SDS011;53739;44.224;22.528;2023-01-26T10:30:16;86.90;;;48.10;;
66830;SDS011;53739;44.224;22.528;2023-01-26T10:32:43;81.60;;;47.05;;
66830;SDS011;53739;44.224;22.528;2023-01-26T10:37:48;69.40;;;41.58;;
66830;SDS011;53739;44.224;22.528;2023-01-26T10:40:16;84.20;;;48.38;;
66830;SDS011;53739;44.224;22.528;2023-01-26T10:42:43;80.00;;;49.42;;
66830;SDS011;53739;44.224;22.528;2023-01-26T10:45:24;78.20;;;43.88;;
66830;SDS011;53739;44.224;22.528;2023-01-26T10:48:02;72.72;;;38.25;;
66830;SDS011;53739;44.224;22.528;2023-01-26T10:50:30;77.63;;;46.28;;
66830;SDS011;53739;44.224;22.528;2023-01-26T10:52:57;82.55;;;45.50;;
66830;SDS011;53739;44.224;22.528;2023-01-26T10:55:25;65.45;;;36.50;;
66830;SDS011;53739;44.224;22.528;2023-01-26T10:57:51;68.13;;;40.83;;
66830;SDS011;53739;44.224;22.528;2023-01-26T11:02:54;74.47;;;39.65;;
66830;SDS011;53739;44.224;22.528;2023-01-26T11:05:30;76.93;;;41.03;;
66830;SDS011;53739;44.224;22.528;2023-01-26T11:07:56;73.68;;;43.60;;
66830;SDS011;53739;44.224;22.528;2023-01-26T11:13:16;71.07;;;39.80;;
66830;SDS011;53739;44.224;22.528;2023-01-26T11:15:45;70.45;;;39.90;;
66830;SDS011;53739;44.224;22.528;2023-01-26T11:19:15;73.25;;;41.67;;
66830;SDS011;53739;44.224;22.528;2023-01-26T11:54:02;76.10;;;39.22;;
66830;SDS011;53739;44.224;22.528;2023-01-26T11:56:43;84.70;;;48.20;;
66830;SDS011;53739;44.224;22.528;2023-01-26T12:05:02;70.15;;;39.17;;
66830;SDS011;53739;44.224;22.528;2023-01-26T12:10:32;86.57;;;48.17;;
66830;SDS011;53739;44.224;22.528;2023-01-26T12:13:29;79.82;;;43.38;;
66830;SDS011;53739;44.224;22.528;2023-01-26T12:15:58;69.78;;;38.63;;
66830;SDS011;53739;44.224;22.528;2023-01-26T12:18:33;73.32;;;40.55;;
66830;SDS011;53739;44.224;22.528;2023-01-26T12:21:07;73.90;;;42.65;;
66830;SDS011;53739;44.224;22.528;2023-01-26T12:23:43;76.28;;;44.80;;
66830;SDS011;53739;44.224;22.528;2023-01-26T12:26:15;71.28;;;39.00;;
66830;SDS011;53739;44.224;22.528;2023-01-26T12:34:53;92.35;;;51.28;;
66830;SDS011;53739;44.224;22.528;2023-01-26T12:39:59;78.40;;;43.58;;
66830;SDS011;53739;44.224;22.528;2023-01-26T12:45:40;88.13;;;44.78;;
66830;SDS011;53739;44.224;22.528;2023-01-26T12:55:13;76.20;;;41.88;;
66830;SDS011;53739;44.224;22.528;2023-01-26T13:00:31;68.40;;;38.72;;
66830;SDS011;53739;44.224;22.528;2023-01-26T13:03:00;64.57;;;35.92;;
66830;SDS011;53739;44.224;22.528;2023-01-26T13:05:56;75.60;;;43.10;;
66830;SDS011;53739;44.224;22.528;2023-01-26T13:14:25;69.45;;;41.63;;
66830;SDS011;53739;44.224;22.528;2023-01-26T13:20:49;76.13;;;40.25;;
66830;SDS011;53739;44.224;22.528;2023-01-26T13:28:36;79.78;;;47.70;;
66830;SDS011;53739;44.224;22.528;2023-01-26T13:31:04;81.78;;;46.25;;
66830;SDS011;53739;44.224;22.528;2023-01-26T13:33:30;70.90;;;40.63;;
66830;SDS011;53739;44.224;22.528;2023-01-26T13:35:56;80.32;;;45.42;;
66830;SDS011;53739;44.224;22.528;2023-01-26T13:41:01;80.40;;;46.38;;
66830;SDS011;53739;44.224;22.528;2023-01-26T13:43:42;67.80;;;37.00;;
66830;SDS011;53739;44.224;22.528;2023-01-26T13:46:37;68.35;;;41.00;;
66830;SDS011;53739;44.224;22.528;2023-01-26T13:49:22;67.22;;;39.42;;
66830;SDS011;53739;44.224;22.528;2023-01-26T13:55:39;83.47;;;47.78;;
66830;SDS011;53739;44.224;22.528;2023-01-26T13:58:13;105.88;;;55.65;;
66830;SDS011;53739;44.224;22.528;2023-01-26T14:00:41;100.20;;;56.40;;
66830;SDS011;53739;44.224;22.528;2023-01-26T14:03:18;101.22;;;53.65;;
66830;SDS011;53739;44.224;22.528;2023-01-26T14:05:55;119.70;;;69.85;;
66830;SDS011;53739;44.224;22.528;2023-01-26T14:08:24;107.57;;;65.25;;
66830;SDS011;53739;44.224;22.528;2023-01-26T14:10:50;93.22;;;56.05;;
66830;SDS011;53739;44.224;22.528;2023-01-26T14:13:51;93.30;;;58.22;;
66830;SDS011;53739;44.224;22.528;2023-01-26T14:21:17;104.90;;;62.40;;
66830;SDS011;53739;44.224;22.528;2023-01-26T14:23:53;132.15;;;81.55;;
66830;SDS011;53739;44.224;22.528;2023-01-26T14:26:31;144.07;;;86.68;;
66830;SDS011;53739;44.224;22.528;2023-01-26T14:28:58;127.10;;;75.90;;
66830;SDS011;53739;44.224;22.528;2023-01-26T14:31:25;106.78;;;65.30;;
66830;SDS011;53739;44.224;22.528;2023-01-26T14:33:52;78.25;;;49.25;;
66830;SDS011;53739;44.224;22.528;2023-01-26T14:36:26;90.13;;;52.40;;
66830;SDS011;53739;44.224;22.528;2023-01-26T14:41:25;78.88;;;44.95;;
66830;SDS011;53739;44.224;22.528;2023-01-26T14:43:57;108.28;;;61.13;;
66830;SDS011;53739;44.224;22.528;2023-01-26T14:49:52;206.55;;;109.47;;
66830;SDS011;53739;44.224;22.528;2023-01-26T14:52:29;207.43;;;108.10;;
66830;SDS011;53739;44.224;22.528;2023-01-26T14:57:42;155.80;;;92.47;;
66830;SDS011;53739;44.224;22.528;2023-01-26T15:00:18;131.15;;;80.03;;
66830;SDS011;53739;44.224;22.528;2023-01-26T15:03:11;110.32;;;63.03;;
66830;SDS011;53739;44.224;22.528;2023-01-26T15:05:46;110.35;;;60.58;;
66830;SDS011;53739;44.224;22.528;2023-01-26T15:08:22;95.65;;;53.17;;
66830;SDS011;53739;44.224;22.528;2023-01-26T15:10:56;96.63;;;58.65;;
66830;SDS011;53739;44.224;22.528;2023-01-26T15:13:53;144.18;;;82.53;;
66830;SDS011;53739;44.224;22.528;2023-01-26T15:16:23;137.77;;;80.43;;
66830;SDS011;53739;44.224;22.528;2023-01-26T15:19:00;111.97;;;65.68;;
66830;SDS011;53739;44.224;22.528;2023-01-26T15:21:32;125.32;;;73.95;;
66830;SDS011;53739;44.224;22.528;2023-01-26T15:24:11;118.80;;;67.35;;
66830;SDS011;53739;44.224;22.528;2023-01-26T15:26:40;92.63;;;53.03;;
66830;SDS011;53739;44.224;22.528;2023-01-26T15:31:58;123.70;;;71.03;;
66830;SDS011;53739;44.224;22.528;2023-01-26T15:34:42;105.22;;;59.40;;
66830;SDS011;53739;44.224;22.528;2023-01-26T15:40:05;116.57;;;68.25;;
66830;SDS011;53739;44.224;22.528;2023-01-26T15:42:31;98.20;;;57.83;;
66830;SDS011;53739;44.224;22.528;2023-01-26T15:44:57;111.90;;;65.13;;
66830;SDS011;53739;44.224;22.528;2023-01-26T15:47:23;119.43;;;67.78;;
66830;SDS011;53739;44.224;22.528;2023-01-26T15:49:49;101.60;;;59.05;;
66830;SDS011;53739;44.224;22.528;2023-01-26T15:52:15;123.30;;;69.60;;
66830;SDS011;53739;44.224;22.528;2023-01-26T15:54:42;129.48;;;72.53;;
66830;SDS011;53739;44.224;22.528;2023-01-26T15:57:09;111.05;;;62.63;;
66830;SDS011;53739;44.224;22.528;2023-01-26T15:59:36;106.10;;;56.95;;
66830;SDS011;53739;44.224;22.528;2023-01-26T16:02:03;159.13;;;83.15;;
66830;SDS011;53739;44.224;22.528;2023-01-26T16:04:34;101.00;;;54.28;;
66830;SDS011;53739;44.224;22.528;2023-01-26T16:07:00;99.78;;;59.35;;
66830;SDS011;53739;44.224;22.528;2023-01-26T16:09:26;116.85;;;63.63;;
66830;SDS011;53739;44.224;22.528;2023-01-26T16:11:51;166.82;;;90.00;;
66830;SDS011;53739;44.224;22.528;2023-01-26T16:14:17;207.75;;;103.40;;
66830;SDS011;53739;44.224;22.528;2023-01-26T16:16:44;218.75;;;105.85;;
66830;SDS011;53739;44.224;22.528;2023-01-26T16:19:10;209.95;;;98.25;;
66830;SDS011;53739;44.224;22.528;2023-01-26T16:21:38;379.55;;;162.50;;
66830;SDS011;53739;44.224;22.528;2023-01-26T16:24:05;309.40;;;140.95;;
66830;SDS011;53739;44.224;22.528;2023-01-26T16:26:31;467.40;;;216.70;;
66830;SDS011;53739;44.224;22.528;2023-01-26T16:28:57;560.33;;;283.05;;
66830;SDS011;53739;44.224;22.528;2023-01-26T16:31:23;495.17;;;236.32;;
66830;SDS011;53739;44.224;22.528;2023-01-26T16:33:57;396.23;;;173.77;;
66830;SDS011;53739;44.224;22.528;2023-01-26T16:36:24;698.63;;;325.98;;
66830;SDS011;53739;44.224;22.528;2023-01-26T16:38:50;556.67;;;286.73;;
66830;SDS011;53739;44.224;22.528;2023-01-26T16:41:19;478.77;;;254.93;;
66830;SDS011;53739;44.224;22.528;2023-01-26T16:43:54;462.38;;;240.48;;
66830;SDS011;53739;44.224;22.528;2023-01-26T16:46:21;441.45;;;222.40;;